sensor_id;sensor_type;location;lat;lon;timestamp;P1;durP1;ratioP1;P2;durP2;ratioP2
35743;SDS011;21867;52.012;4.324;2024-01-30T00:02:05;11.60;;;9.47;;
35743;SDS011;21867;52.012;4.324;2024-01-30T00:04:34;12.00;;;9.90;;
35743;SDS011;21867;52.012;4.324;2024-01-30T00:14:31;10.60;;;8.00;;
35743;SDS011;21867;52.012;4.324;2024-01-30T00:16:58;10.80;;;9.47;;
35743;SDS011;21867;52.012;4.324;2024-01-30T00:19:26;13.40;;;9.50;;
35743;SDS011;21867;52.012;4.324;2024-01-30T00:21:55;10.60;;;8.63;;
35743;SDS011;21867;52.012;4.324;2024-01-30T00:24:22;11.30;;;10.07;;
35743;SDS011;21867;52.012;4.324;2024-01-30T00:29:32;9.43;;;8.53;;
35743;SDS011;21867;52.012;4.324;2024-01-30T00:31:59;10.97;;;9.07;;
35743;SDS011;21867;52.012;4.324;2024-01-30T00:34:26;9.93;;;8.90;;
35743;SDS011;21867;52.012;4.324;2024-01-30T00:46:52;11.50;;;10.20;;
35743;SDS011;21867;52.012;4.324;2024-01-30T00:49:19;10.17;;;8.27;;
35743;SDS011;21867;52.012;4.324;2024-01-30T00:51:47;10.70;;;9.27;;
35743;SDS011;21867;52.012;4.324;2024-01-30T00:54:14;8.93;;;8.03;;
35743;SDS011;21867;52.012;4.324;2024-01-30T00:56:45;10.57;;;8.87;;
35743;SDS011;21867;52.012;4.324;2024-01-30T00:59:13;10.60;;;9.50;;
35743;SDS011;21867;52.012;4.324;2024-01-30T01:01:40;10.53;;;9.23;;
35743;SDS011;21867;52.012;4.324;2024-01-30T01:04:09;13.07;;;8.97;;
35743;SDS011;21867;52.012;4.324;2024-01-30T01:06:37;10.93;;;9.63;;
35743;SDS011;21867;52.012;4.324;2024-01-30T01:14:42;10.37;;;8.97;;
35743;SDS011;21867;52.012;4.324;2024-01-30T01:17:09;9.87;;;7.57;;
35743;SDS011;21867;52.012;4.324;2024-01-30T01:19:38;11.97;;;9.50;;
35743;SDS011;21867;52.012;4.324;2024-01-30T01:22:05;12.60;;;9.63;;
35743;SDS011;21867;52.012;4.324;2024-01-30T01:24:33;9.83;;;8.73;;
35743;SDS011;21867;52.012;4.324;2024-01-30T01:27:12;10.07;;;9.07;;
35743;SDS011;21867;52.012;4.324;2024-01-30T01:29:40;10.37;;;8.87;;
35743;SDS011;21867;52.012;4.324;2024-01-30T01:32:07;11.57;;;10.10;;
35743;SDS011;21867;52.012;4.324;2024-01-30T01:34:35;10.13;;;8.47;;
35743;SDS011;21867;52.012;4.324;2024-01-30T01:43:25;9.77;;;8.77;;
35743;SDS011;21867;52.012;4.324;2024-01-30T01:45:53;9.90;;;8.90;;
35743;SDS011;21867;52.012;4.324;2024-01-30T01:48:20;10.60;;;8.80;;
35743;SDS011;21867;52.012;4.324;2024-01-30T01:50:48;9.87;;;8.80;;
35743;SDS011;21867;52.012;4.324;2024-01-30T01:53:15;10.43;;;9.33;;
35743;SDS011;21867;52.012;4.324;2024-01-30T01:58:31;9.60;;;8.60;;
35743;SDS011;21867;52.012;4.324;2024-01-30T02:00:59;10.20;;;8.20;;
35743;SDS011;21867;52.012;4.324;2024-01-30T02:03:26;9.87;;;8.83;;
35743;SDS011;21867;52.012;4.324;2024-01-30T02:05:54;10.60;;;9.50;;
35743;SDS011;21867;52.012;4.324;2024-01-30T02:14:46;9.97;;;8.83;;
35743;SDS011;21867;52.012;4.324;2024-01-30T02:17:13;9.03;;;8.07;;
35743;SDS011;21867;52.012;4.324;2024-01-30T02:19:41;11.53;;;9.17;;
35743;SDS011;21867;52.012;4.324;2024-01-30T02:22:10;9.43;;;8.47;;
35743;SDS011;21867;52.012;4.324;2024-01-30T02:24:37;10.67;;;9.27;;
35743;SDS011;21867;52.012;4.324;2024-01-30T02:27:05;10.90;;;9.77;;
35743;SDS011;21867;52.012;4.324;2024-01-30T02:29:32;11.57;;;9.53;;
35743;SDS011;21867;52.012;4.324;2024-01-30T02:31:59;9.60;;;8.50;;
35743;SDS011;21867;52.012;4.324;2024-01-30T02:34:27;11.30;;;8.53;;
35743;SDS011;21867;52.012;4.324;2024-01-30T02:43:18;12.13;;;8.93;;
35743;SDS011;21867;52.012;4.324;2024-01-30T02:45:45;9.83;;;8.80;;
35743;SDS011;21867;52.012;4.324;2024-01-30T02:48:13;6.97;;;6.27;;
35743;SDS011;21867;52.012;4.324;2024-01-30T02:50:40;10.13;;;7.97;;
35743;SDS011;21867;52.012;4.324;2024-01-30T02:53:07;9.60;;;8.63;;
35743;SDS011;21867;52.012;4.324;2024-01-30T02:55:53;11.57;;;9.83;;
35743;SDS011;21867;52.012;4.324;2024-01-30T02:58:22;10.37;;;9.00;;
35743;SDS011;21867;52.012;4.324;2024-01-30T03:00:49;9.13;;;8.10;;
35743;SDS011;21867;52.012;4.324;2024-01-30T03:03:17;11.40;;;9.53;;
35743;SDS011;21867;52.012;4.324;2024-01-30T03:12:31;14.37;;;9.93;;
35743;SDS011;21867;52.012;4.324;2024-01-30T03:15:00;10.37;;;9.27;;
35743;SDS011;21867;52.012;4.324;2024-01-30T03:17:27;13.53;;;9.97;;
35743;SDS011;21867;52.012;4.324;2024-01-30T03:19:54;9.60;;;8.60;;
35743;SDS011;21867;52.012;4.324;2024-01-30T03:22:22;10.53;;;8.70;;
35743;SDS011;21867;52.012;4.324;2024-01-30T03:27:39;11.57;;;9.03;;
35743;SDS011;21867;52.012;4.324;2024-01-30T03:30:08;10.20;;;8.73;;
35743;SDS011;21867;52.012;4.324;2024-01-30T03:32:35;10.10;;;9.00;;
35743;SDS011;21867;52.012;4.324;2024-01-30T03:35:18;15.13;;;9.90;;
35743;SDS011;21867;52.012;4.324;2024-01-30T03:41:41;9.97;;;8.03;;
35743;SDS011;21867;52.012;4.324;2024-01-30T03:44:09;10.30;;;9.20;;
35743;SDS011;21867;52.012;4.324;2024-01-30T03:46:37;10.77;;;9.30;;
35743;SDS011;21867;52.012;4.324;2024-01-30T03:49:05;14.50;;;10.07;;
35743;SDS011;21867;52.012;4.324;2024-01-30T03:51:32;12.37;;;10.07;;
35743;SDS011;21867;52.012;4.324;2024-01-30T03:56:42;11.23;;;10.03;;
35743;SDS011;21867;52.012;4.324;2024-01-30T03:59:09;10.93;;;9.70;;
35743;SDS011;21867;52.012;4.324;2024-01-30T04:01:38;11.73;;;9.87;;
35743;SDS011;21867;52.012;4.324;2024-01-30T04:04:06;12.00;;;9.87;;
35743;SDS011;21867;52.012;4.324;2024-01-30T04:06:33;12.37;;;9.23;;
35743;SDS011;21867;52.012;4.324;2024-01-30T04:16:29;11.80;;;9.80;;
35743;SDS011;21867;52.012;4.324;2024-01-30T04:18:58;11.83;;;9.87;;
35743;SDS011;21867;52.012;4.324;2024-01-30T04:21:26;10.97;;;9.83;;
35743;SDS011;21867;52.012;4.324;2024-01-30T04:23:53;11.37;;;8.70;;
35743;SDS011;21867;52.012;4.324;2024-01-30T04:26:20;11.67;;;9.80;;
35743;SDS011;21867;52.012;4.324;2024-01-30T04:31:30;13.47;;;9.50;;
35743;SDS011;21867;52.012;4.324;2024-01-30T04:33:59;12.97;;;10.03;;
35743;SDS011;21867;52.012;4.324;2024-01-30T04:36:26;11.67;;;9.63;;
35743;SDS011;21867;52.012;4.324;2024-01-30T04:38:53;11.07;;;9.60;;
35743;SDS011;21867;52.012;4.324;2024-01-30T04:41:21;11.50;;;9.90;;
35743;SDS011;21867;52.012;4.324;2024-01-30T04:43:48;12.43;;;10.33;;
35743;SDS011;21867;52.012;4.324;2024-01-30T04:46:28;12.80;;;9.17;;
35743;SDS011;21867;52.012;4.324;2024-01-30T04:49:51;13.50;;;9.40;;
35743;SDS011;21867;52.012;4.324;2024-01-30T04:52:19;12.10;;;10.77;;
35743;SDS011;21867;52.012;4.324;2024-01-30T04:54:46;12.70;;;10.10;;
35743;SDS011;21867;52.012;4.324;2024-01-30T04:57:14;11.37;;;10.20;;
35743;SDS011;21867;52.012;4.324;2024-01-30T04:59:41;12.83;;;9.53;;
35743;SDS011;21867;52.012;4.324;2024-01-30T05:02:09;13.80;;;9.40;;
35743;SDS011;21867;52.012;4.324;2024-01-30T05:04:45;10.63;;;9.57;;
35743;SDS011;21867;52.012;4.324;2024-01-30T05:07:14;11.57;;;10.30;;
35743;SDS011;21867;52.012;4.324;2024-01-30T05:09:42;13.53;;;9.83;;
35743;SDS011;21867;52.012;4.324;2024-01-30T05:12:09;11.13;;;9.73;;
35743;SDS011;21867;52.012;4.324;2024-01-30T05:20:38;11.97;;;10.27;;
35743;SDS011;21867;52.012;4.324;2024-01-30T05:23:07;14.07;;;10.00;;
35743;SDS011;21867;52.012;4.324;2024-01-30T05:25:35;12.90;;;9.70;;
35743;SDS011;21867;52.012;4.324;2024-01-30T05:28:02;11.03;;;9.50;;
35743;SDS011;21867;52.012;4.324;2024-01-30T05:30:30;12.73;;;9.77;;
35743;SDS011;21867;52.012;4.324;2024-01-30T05:35:39;10.80;;;9.67;;
35743;SDS011;21867;52.012;4.324;2024-01-30T05:38:08;10.90;;;9.20;;
35743;SDS011;21867;52.012;4.324;2024-01-30T05:40:35;11.70;;;10.47;;
35743;SDS011;21867;52.012;4.324;2024-01-30T05:43:03;14.13;;;9.87;;
35743;SDS011;21867;52.012;4.324;2024-01-30T05:45:30;10.97;;;9.80;;
35743;SDS011;21867;52.012;4.324;2024-01-30T05:57:12;11.60;;;9.93;;
35743;SDS011;21867;52.012;4.324;2024-01-30T05:59:40;13.97;;;9.20;;
35743;SDS011;21867;52.012;4.324;2024-01-30T06:02:07;13.57;;;9.47;;
35743;SDS011;21867;52.012;4.324;2024-01-30T06:04:50;12.47;;;10.03;;
35743;SDS011;21867;52.012;4.324;2024-01-30T06:07:17;16.60;;;11.13;;
35743;SDS011;21867;52.012;4.324;2024-01-30T06:09:45;15.17;;;9.37;;
35743;SDS011;21867;52.012;4.324;2024-01-30T06:12:14;11.37;;;9.73;;
35743;SDS011;21867;52.012;4.324;2024-01-30T06:14:41;14.97;;;9.50;;
35743;SDS011;21867;52.012;4.324;2024-01-30T06:17:12;13.83;;;9.53;;
35743;SDS011;21867;52.012;4.324;2024-01-30T06:19:49;12.73;;;9.53;;
35743;SDS011;21867;52.012;4.324;2024-01-30T06:22:17;12.53;;;9.30;;
35743;SDS011;21867;52.012;4.324;2024-01-30T06:24:44;10.10;;;8.77;;
35743;SDS011;21867;52.012;4.324;2024-01-30T06:27:11;12.93;;;9.97;;
35743;SDS011;21867;52.012;4.324;2024-01-30T06:38:13;13.17;;;10.37;;
35743;SDS011;21867;52.012;4.324;2024-01-30T07:07:02;16.57;;;10.97;;
35743;SDS011;21867;52.012;4.324;2024-01-30T07:09:30;15.40;;;11.87;;
35743;SDS011;21867;52.012;4.324;2024-01-30T07:11:57;12.60;;;11.23;;
35743;SDS011;21867;52.012;4.324;2024-01-30T07:14:25;12.47;;;11.13;;
35743;SDS011;21867;52.012;4.324;2024-01-30T07:16:52;15.07;;;11.07;;
35743;SDS011;21867;52.012;4.324;2024-01-30T07:19:19;13.27;;;10.97;;
35743;SDS011;21867;52.012;4.324;2024-01-30T07:21:47;23.33;;;12.17;;
35743;SDS011;21867;52.012;4.324;2024-01-30T07:24:16;14.37;;;12.07;;
35743;SDS011;21867;52.012;4.324;2024-01-30T07:26:44;14.93;;;13.30;;
35743;SDS011;21867;52.012;4.324;2024-01-30T07:29:11;17.93;;;14.10;;
35743;SDS011;21867;52.012;4.324;2024-01-30T07:31:38;16.60;;;12.87;;
35743;SDS011;21867;52.012;4.324;2024-01-30T07:40:20;17.73;;;14.50;;
35743;SDS011;21867;52.012;4.324;2024-01-30T07:42:48;22.90;;;14.13;;
35743;SDS011;21867;52.012;4.324;2024-01-30T07:45:15;18.10;;;12.97;;
35743;SDS011;21867;52.012;4.324;2024-01-30T07:47:58;16.13;;;13.57;;
35743;SDS011;21867;52.012;4.324;2024-01-30T07:50:25;13.33;;;12.00;;
35743;SDS011;21867;52.012;4.324;2024-01-30T07:52:53;12.80;;;11.33;;
35743;SDS011;21867;52.012;4.324;2024-01-30T07:55:22;19.43;;;13.27;;
35743;SDS011;21867;52.012;4.324;2024-01-30T07:57:49;13.27;;;11.87;;
35743;SDS011;21867;52.012;4.324;2024-01-30T08:00:18;14.70;;;11.10;;
35743;SDS011;21867;52.012;4.324;2024-01-30T08:05:28;17.07;;;12.70;;
35743;SDS011;21867;52.012;4.324;2024-01-30T08:07:55;15.00;;;12.13;;
35743;SDS011;21867;52.012;4.324;2024-01-30T08:10:24;15.10;;;11.73;;
35743;SDS011;21867;52.012;4.324;2024-01-30T08:20:17;16.70;;;13.27;;
35743;SDS011;21867;52.012;4.324;2024-01-30T08:22:44;14.77;;;12.13;;
35743;SDS011;21867;52.012;4.324;2024-01-30T08:25:12;16.77;;;12.90;;
35743;SDS011;21867;52.012;4.324;2024-01-30T08:27:41;14.97;;;13.23;;
35743;SDS011;21867;52.012;4.324;2024-01-30T08:30:08;16.90;;;12.97;;
35743;SDS011;21867;52.012;4.324;2024-01-30T08:32:48;14.40;;;13.03;;
35743;SDS011;21867;52.012;4.324;2024-01-30T08:35:16;16.33;;;13.37;;
35743;SDS011;21867;52.012;4.324;2024-01-30T08:37:43;19.47;;;14.33;;
35743;SDS011;21867;52.012;4.324;2024-01-30T08:40:14;21.23;;;14.40;;
35743;SDS011;21867;52.012;4.324;2024-01-30T08:43:01;21.80;;;14.53;;
35743;SDS011;21867;52.012;4.324;2024-01-30T08:51:29;16.83;;;14.97;;
35743;SDS011;21867;52.012;4.324;2024-01-30T08:53:56;17.23;;;14.63;;
35743;SDS011;21867;52.012;4.324;2024-01-30T08:56:23;18.70;;;16.77;;
35743;SDS011;21867;52.012;4.324;2024-01-30T08:58:52;19.90;;;17.90;;
35743;SDS011;21867;52.012;4.324;2024-01-30T09:01:19;14.63;;;13.20;;
35743;SDS011;21867;52.012;4.324;2024-01-30T09:06:36;16.83;;;13.10;;
35743;SDS011;21867;52.012;4.324;2024-01-30T09:09:03;15.20;;;10.67;;
35743;SDS011;21867;52.012;4.324;2024-01-30T09:11:31;13.53;;;10.93;;
35743;SDS011;21867;52.012;4.324;2024-01-30T09:20:45;15.83;;;9.73;;
35743;SDS011;21867;52.012;4.324;2024-01-30T09:23:13;12.57;;;7.70;;
35743;SDS011;21867;52.012;4.324;2024-01-30T09:25:40;8.63;;;4.30;;
35743;SDS011;21867;52.012;4.324;2024-01-30T09:28:08;7.30;;;4.20;;
35743;SDS011;21867;52.012;4.324;2024-01-30T09:30:35;8.00;;;3.93;;
35743;SDS011;21867;52.012;4.324;2024-01-30T09:35:52;8.93;;;4.10;;
35743;SDS011;21867;52.012;4.324;2024-01-30T09:38:19;5.27;;;2.47;;
35743;SDS011;21867;52.012;4.324;2024-01-30T09:40:48;5.40;;;2.80;;
35743;SDS011;21867;52.012;4.324;2024-01-30T09:49:44;6.03;;;3.30;;
35743;SDS011;21867;52.012;4.324;2024-01-30T09:52:13;5.43;;;3.10;;
35743;SDS011;21867;52.012;4.324;2024-01-30T09:54:40;7.60;;;4.50;;
35743;SDS011;21867;52.012;4.324;2024-01-30T09:57:08;7.07;;;3.00;;
35743;SDS011;21867;52.012;4.324;2024-01-30T09:59:36;12.17;;;2.97;;
35743;SDS011;21867;52.012;4.324;2024-01-30T10:05:02;8.73;;;2.73;;
35743;SDS011;21867;52.012;4.324;2024-01-30T10:07:32;3.27;;;2.50;;
35743;SDS011;21867;52.012;4.324;2024-01-30T10:09:59;5.80;;;1.93;;
35743;SDS011;21867;52.012;4.324;2024-01-30T10:12:27;2.70;;;2.30;;
35743;SDS011;21867;52.012;4.324;2024-01-30T10:14:55;5.37;;;2.40;;
35743;SDS011;21867;52.012;4.324;2024-01-30T10:17:37;11.53;;;3.60;;
35743;SDS011;21867;52.012;4.324;2024-01-30T10:20:20;9.47;;;2.70;;
35743;SDS011;21867;52.012;4.324;2024-01-30T10:23:16;5.53;;;2.77;;
35743;SDS011;21867;52.012;4.324;2024-01-30T10:25:43;5.57;;;2.63;;
35743;SDS011;21867;52.012;4.324;2024-01-30T10:28:11;5.90;;;2.47;;
35743;SDS011;21867;52.012;4.324;2024-01-30T10:30:39;6.87;;;2.97;;
35743;SDS011;21867;52.012;4.324;2024-01-30T10:33:06;7.43;;;2.33;;
35743;SDS011;21867;52.012;4.324;2024-01-30T10:35:33;6.27;;;2.53;;
35743;SDS011;21867;52.012;4.324;2024-01-30T10:38:18;5.57;;;2.53;;
35743;SDS011;21867;52.012;4.324;2024-01-30T10:40:46;6.23;;;2.50;;
35743;SDS011;21867;52.012;4.324;2024-01-30T10:43:15;6.90;;;2.40;;
35743;SDS011;21867;52.012;4.324;2024-01-30T10:45:42;3.23;;;2.30;;
35743;SDS011;21867;52.012;4.324;2024-01-30T10:54:35;10.37;;;2.50;;
35743;SDS011;21867;52.012;4.324;2024-01-30T10:57:03;9.90;;;3.20;;
35743;SDS011;21867;52.012;4.324;2024-01-30T10:59:31;8.80;;;3.10;;
35743;SDS011;21867;52.012;4.324;2024-01-30T11:01:59;6.13;;;2.80;;
35743;SDS011;21867;52.012;4.324;2024-01-30T11:04:27;8.87;;;3.00;;
35743;SDS011;21867;52.012;4.324;2024-01-30T11:07:18;12.93;;;3.70;;
35743;SDS011;21867;52.012;4.324;2024-01-30T11:09:51;10.10;;;2.93;;
35743;SDS011;21867;52.012;4.324;2024-01-30T11:12:22;10.03;;;3.50;;
35743;SDS011;21867;52.012;4.324;2024-01-30T11:14:50;8.37;;;3.03;;
35743;SDS011;21867;52.012;4.324;2024-01-30T11:23:04;7.93;;;2.57;;
35743;SDS011;21867;52.012;4.324;2024-01-30T11:25:33;8.57;;;3.17;;
35743;SDS011;21867;52.012;4.324;2024-01-30T11:28:00;10.20;;;3.20;;
35743;SDS011;21867;52.012;4.324;2024-01-30T11:30:28;12.87;;;3.30;;
35743;SDS011;21867;52.012;4.324;2024-01-30T11:33:05;6.30;;;2.50;;
35743;SDS011;21867;52.012;4.324;2024-01-30T11:38:20;4.67;;;2.13;;
35743;SDS011;21867;52.012;4.324;2024-01-30T11:40:49;7.10;;;2.90;;
35743;SDS011;21867;52.012;4.324;2024-01-30T11:43:18;11.57;;;3.53;;
35743;SDS011;21867;52.012;4.324;2024-01-30T11:52:25;8.63;;;2.93;;
35743;SDS011;21867;52.012;4.324;2024-01-30T11:54:52;12.53;;;3.30;;
35743;SDS011;21867;52.012;4.324;2024-01-30T11:57:21;6.47;;;2.73;;
35743;SDS011;21867;52.012;4.324;2024-01-30T11:59:49;10.87;;;3.20;;
35743;SDS011;21867;52.012;4.324;2024-01-30T12:02:16;4.40;;;2.50;;
35743;SDS011;21867;52.012;4.324;2024-01-30T12:07:44;8.77;;;3.07;;
35743;SDS011;21867;52.012;4.324;2024-01-30T12:10:12;8.70;;;3.10;;
35743;SDS011;21867;52.012;4.324;2024-01-30T12:12:42;8.70;;;3.30;;
35743;SDS011;21867;52.012;4.324;2024-01-30T12:15:10;5.50;;;2.80;;
35743;SDS011;21867;52.012;4.324;2024-01-30T12:17:37;6.57;;;2.53;;
35743;SDS011;21867;52.012;4.324;2024-01-30T12:29:19;11.70;;;3.33;;
35743;SDS011;21867;52.012;4.324;2024-01-30T12:31:47;6.57;;;2.90;;
35743;SDS011;21867;52.012;4.324;2024-01-30T12:34:14;7.13;;;2.77;;
35743;SDS011;21867;52.012;4.324;2024-01-30T12:36:47;6.07;;;3.40;;
35743;SDS011;21867;52.012;4.324;2024-01-30T12:39:15;8.83;;;2.90;;
35743;SDS011;21867;52.012;4.324;2024-01-30T12:41:42;9.27;;;3.07;;
35743;SDS011;21867;52.012;4.324;2024-01-30T12:44:10;7.70;;;2.93;;
35743;SDS011;21867;52.012;4.324;2024-01-30T12:46:38;8.20;;;3.43;;
35743;SDS011;21867;52.012;4.324;2024-01-30T12:49:06;5.93;;;3.23;;
35743;SDS011;21867;52.012;4.324;2024-01-30T12:51:33;12.00;;;3.03;;
35743;SDS011;21867;52.012;4.324;2024-01-30T12:54:04;16.50;;;3.47;;
35743;SDS011;21867;52.012;4.324;2024-01-30T12:56:31;8.70;;;2.60;;
35743;SDS011;21867;52.012;4.324;2024-01-30T12:58:58;7.97;;;3.40;;
35743;SDS011;21867;52.012;4.324;2024-01-30T13:01:26;9.07;;;3.37;;
35743;SDS011;21867;52.012;4.324;2024-01-30T13:03:55;7.53;;;3.33;;
35743;SDS011;21867;52.012;4.324;2024-01-30T13:06:35;11.00;;;3.40;;
35743;SDS011;21867;52.012;4.324;2024-01-30T13:12:58;10.20;;;3.37;;
35743;SDS011;21867;52.012;4.324;2024-01-30T13:15:26;7.30;;;3.07;;
35743;SDS011;21867;52.012;4.324;2024-01-30T13:17:53;8.17;;;3.70;;
35743;SDS011;21867;52.012;4.324;2024-01-30T13:20:37;4.23;;;3.13;;
35743;SDS011;21867;52.012;4.324;2024-01-30T13:23:06;7.50;;;4.00;;
35743;SDS011;21867;52.012;4.324;2024-01-30T13:25:33;4.87;;;4.30;;
35743;SDS011;21867;52.012;4.324;2024-01-30T13:28:00;10.03;;;4.70;;
35743;SDS011;21867;52.012;4.324;2024-01-30T13:30:28;11.10;;;5.17;;
35743;SDS011;21867;52.012;4.324;2024-01-30T13:32:55;6.30;;;5.23;;
35743;SDS011;21867;52.012;4.324;2024-01-30T13:35:43;11.60;;;5.10;;
35743;SDS011;21867;52.012;4.324;2024-01-30T13:38:10;9.27;;;5.37;;
35743;SDS011;21867;52.012;4.324;2024-01-30T13:40:38;9.93;;;5.67;;
35743;SDS011;21867;52.012;4.324;2024-01-30T13:43:05;8.80;;;5.33;;
35743;SDS011;21867;52.012;4.324;2024-01-30T13:45:33;10.47;;;7.77;;
35743;SDS011;21867;52.012;4.324;2024-01-30T13:51:44;6.83;;;4.50;;
35743;SDS011;21867;52.012;4.324;2024-01-30T13:54:12;8.33;;;4.10;;
35743;SDS011;21867;52.012;4.324;2024-01-30T13:56:39;7.67;;;4.37;;
35743;SDS011;21867;52.012;4.324;2024-01-30T13:59:07;5.17;;;3.77;;
35743;SDS011;21867;52.012;4.324;2024-01-30T14:01:35;6.13;;;4.33;;
35743;SDS011;21867;52.012;4.324;2024-01-30T14:04:02;5.80;;;3.70;;
35743;SDS011;21867;52.012;4.324;2024-01-30T14:06:42;7.23;;;4.03;;
35743;SDS011;21867;52.012;4.324;2024-01-30T14:09:23;5.77;;;3.30;;
35743;SDS011;21867;52.012;4.324;2024-01-30T14:11:50;5.17;;;3.67;;
35743;SDS011;21867;52.012;4.324;2024-01-30T14:14:18;7.97;;;3.70;;
35743;SDS011;21867;52.012;4.324;2024-01-30T14:23:07;4.90;;;3.33;;
35743;SDS011;21867;52.012;4.324;2024-01-30T14:25:36;7.50;;;5.50;;
35743;SDS011;21867;52.012;4.324;2024-01-30T14:28:03;8.17;;;4.70;;
35743;SDS011;21867;52.012;4.324;2024-01-30T14:30:33;9.47;;;4.77;;
35743;SDS011;21867;52.012;4.324;2024-01-30T14:33:00;5.00;;;4.00;;
35743;SDS011;21867;52.012;4.324;2024-01-30T14:38:10;9.83;;;4.87;;
35743;SDS011;21867;52.012;4.324;2024-01-30T14:40:39;10.93;;;4.17;;
35743;SDS011;21867;52.012;4.324;2024-01-30T14:43:07;6.90;;;4.40;;
35743;SDS011;21867;52.012;4.324;2024-01-30T14:45:34;4.23;;;3.73;;
35743;SDS011;21867;52.012;4.324;2024-01-30T14:48:02;6.33;;;3.67;;
35743;SDS011;21867;52.012;4.324;2024-01-30T14:56:52;7.10;;;4.87;;
35743;SDS011;21867;52.012;4.324;2024-01-30T14:59:20;8.97;;;5.20;;
35743;SDS011;21867;52.012;4.324;2024-01-30T15:01:47;7.70;;;5.87;;
35743;SDS011;21867;52.012;4.324;2024-01-30T15:07:03;7.23;;;4.83;;
35743;SDS011;21867;52.012;4.324;2024-01-30T15:09:31;8.10;;;5.43;;
35743;SDS011;21867;52.012;4.324;2024-01-30T15:12:00;9.73;;;5.70;;
35743;SDS011;21867;52.012;4.324;2024-01-30T15:14:27;10.47;;;6.40;;
35743;SDS011;21867;52.012;4.324;2024-01-30T15:16:54;9.93;;;5.17;;
35743;SDS011;21867;52.012;4.324;2024-01-30T15:22:13;6.83;;;4.90;;
35743;SDS011;21867;52.012;4.324;2024-01-30T15:24:41;9.77;;;5.50;;
35743;SDS011;21867;52.012;4.324;2024-01-30T15:27:10;7.43;;;4.90;;
35743;SDS011;21867;52.012;4.324;2024-01-30T15:36:21;7.90;;;5.17;;
35743;SDS011;21867;52.012;4.324;2024-01-30T15:38:49;6.10;;;5.10;;
35743;SDS011;21867;52.012;4.324;2024-01-30T15:41:17;7.67;;;5.13;;
35743;SDS011;21867;52.012;4.324;2024-01-30T15:43:46;5.77;;;4.17;;
35743;SDS011;21867;52.012;4.324;2024-01-30T15:46:13;6.37;;;4.73;;
35743;SDS011;21867;52.012;4.324;2024-01-30T15:48:40;7.13;;;4.33;;
35743;SDS011;21867;52.012;4.324;2024-01-30T15:51:26;5.77;;;4.37;;
35743;SDS011;21867;52.012;4.324;2024-01-30T15:53:55;8.90;;;4.47;;
35743;SDS011;21867;52.012;4.324;2024-01-30T15:56:22;9.43;;;4.53;;
35743;SDS011;21867;52.012;4.324;2024-01-30T15:58:51;9.20;;;4.33;;
35743;SDS011;21867;52.012;4.324;2024-01-30T16:07:40;10.87;;;4.40;;
35743;SDS011;21867;52.012;4.324;2024-01-30T16:10:07;8.30;;;4.13;;
35743;SDS011;21867;52.012;4.324;2024-01-30T16:12:36;8.90;;;3.83;;
35743;SDS011;21867;52.012;4.324;2024-01-30T16:15:05;8.30;;;4.17;;
35743;SDS011;21867;52.012;4.324;2024-01-30T16:17:32;5.07;;;4.00;;
35743;SDS011;21867;52.012;4.324;2024-01-30T16:20:08;8.30;;;3.80;;
35743;SDS011;21867;52.012;4.324;2024-01-30T16:22:36;8.43;;;4.80;;
35743;SDS011;21867;52.012;4.324;2024-01-30T16:25:04;9.80;;;5.03;;
35743;SDS011;21867;52.012;4.324;2024-01-30T16:27:31;8.00;;;3.57;;
35743;SDS011;21867;52.012;4.324;2024-01-30T16:35:52;14.40;;;3.93;;
35743;SDS011;21867;52.012;4.324;2024-01-30T16:38:20;15.13;;;5.70;;
35743;SDS011;21867;52.012;4.324;2024-01-30T16:40:47;10.57;;;3.90;;
35743;SDS011;21867;52.012;4.324;2024-01-30T16:43:14;8.83;;;3.70;;
35743;SDS011;21867;52.012;4.324;2024-01-30T16:45:42;17.80;;;3.70;;
35743;SDS011;21867;52.012;4.324;2024-01-30T16:50:54;16.87;;;4.67;;
35743;SDS011;21867;52.012;4.324;2024-01-30T16:53:21;9.47;;;3.90;;
35743;SDS011;21867;52.012;4.324;2024-01-30T16:55:48;8.60;;;3.50;;
35743;SDS011;21867;52.012;4.324;2024-01-30T16:58:16;11.50;;;3.63;;
35743;SDS011;21867;52.012;4.324;2024-01-30T17:00:43;9.37;;;3.93;;
35743;SDS011;21867;52.012;4.324;2024-01-30T17:10:40;16.83;;;4.53;;
35743;SDS011;21867;52.012;4.324;2024-01-30T17:13:07;12.97;;;4.17;;
35743;SDS011;21867;52.012;4.324;2024-01-30T17:15:35;13.50;;;4.43;;
35743;SDS011;21867;52.012;4.324;2024-01-30T17:20:50;13.33;;;4.63;;
35743;SDS011;21867;52.012;4.324;2024-01-30T17:23:17;14.87;;;3.83;;
35743;SDS011;21867;52.012;4.324;2024-01-30T17:25:46;23.63;;;6.23;;
35743;SDS011;21867;52.012;4.324;2024-01-30T17:28:13;14.27;;;4.00;;
35743;SDS011;21867;52.012;4.324;2024-01-30T17:30:40;24.30;;;4.57;;
35743;SDS011;21867;52.012;4.324;2024-01-30T17:35:54;17.40;;;4.43;;
35743;SDS011;21867;52.012;4.324;2024-01-30T17:38:22;14.60;;;4.47;;
35743;SDS011;21867;52.012;4.324;2024-01-30T17:40:50;14.20;;;4.23;;
35743;SDS011;21867;52.012;4.324;2024-01-30T17:43:34;15.70;;;3.37;;
35743;SDS011;21867;52.012;4.324;2024-01-30T17:49:24;22.40;;;5.13;;
35743;SDS011;21867;52.012;4.324;2024-01-30T17:51:51;26.20;;;4.97;;
35743;SDS011;21867;52.012;4.324;2024-01-30T17:54:19;17.80;;;4.20;;
35743;SDS011;21867;52.012;4.324;2024-01-30T17:56:48;15.67;;;3.80;;
35743;SDS011;21867;52.012;4.324;2024-01-30T17:59:15;13.27;;;3.40;;
35743;SDS011;21867;52.012;4.324;2024-01-30T18:01:45;10.73;;;3.00;;
35743;SDS011;21867;52.012;4.324;2024-01-30T18:07:20;12.03;;;3.20;;
35743;SDS011;21867;52.012;4.324;2024-01-30T18:09:47;12.60;;;3.40;;
35743;SDS011;21867;52.012;4.324;2024-01-30T18:12:16;11.73;;;3.50;;
35743;SDS011;21867;52.012;4.324;2024-01-30T18:20:44;12.27;;;3.93;;
35743;SDS011;21867;52.012;4.324;2024-01-30T18:23:11;13.67;;;4.00;;
35743;SDS011;21867;52.012;4.324;2024-01-30T18:25:38;14.83;;;3.50;;
35743;SDS011;21867;52.012;4.324;2024-01-30T18:28:07;11.00;;;3.63;;
35743;SDS011;21867;52.012;4.324;2024-01-30T18:30:35;17.30;;;3.70;;
35743;SDS011;21867;52.012;4.324;2024-01-30T18:33:17;18.90;;;4.30;;
35743;SDS011;21867;52.012;4.324;2024-01-30T18:35:45;15.43;;;3.87;;
35743;SDS011;21867;52.012;4.324;2024-01-30T18:38:13;10.03;;;3.27;;
35743;SDS011;21867;52.012;4.324;2024-01-30T18:40:40;8.50;;;3.87;;
35743;SDS011;21867;52.012;4.324;2024-01-30T18:43:09;13.00;;;5.27;;
35743;SDS011;21867;52.012;4.324;2024-01-30T18:45:55;17.87;;;4.30;;
35743;SDS011;21867;52.012;4.324;2024-01-30T18:48:38;14.60;;;3.47;;
35743;SDS011;21867;52.012;4.324;2024-01-30T18:51:06;12.70;;;3.73;;
35743;SDS011;21867;52.012;4.324;2024-01-30T18:53:33;13.73;;;3.77;;
35743;SDS011;21867;52.012;4.324;2024-01-30T18:56:00;11.90;;;3.67;;
35743;SDS011;21867;52.012;4.324;2024-01-30T18:58:29;10.30;;;4.40;;
35743;SDS011;21867;52.012;4.324;2024-01-30T19:00:57;8.60;;;3.73;;
35743;SDS011;21867;52.012;4.324;2024-01-30T19:03:39;9.87;;;3.17;;
35743;SDS011;21867;52.012;4.324;2024-01-30T19:06:07;10.63;;;3.67;;
35743;SDS011;21867;52.012;4.324;2024-01-30T19:08:34;11.93;;;3.90;;
35743;SDS011;21867;52.012;4.324;2024-01-30T19:11:02;10.90;;;3.40;;
35743;SDS011;21867;52.012;4.324;2024-01-30T19:19:55;9.13;;;2.73;;
35743;SDS011;21867;52.012;4.324;2024-01-30T19:22:22;7.97;;;3.00;;
35743;SDS011;21867;52.012;4.324;2024-01-30T19:24:50;10.57;;;3.03;;
35743;SDS011;21867;52.012;4.324;2024-01-30T19:27:17;11.47;;;3.07;;
35743;SDS011;21867;52.012;4.324;2024-01-30T19:29:44;9.43;;;2.97;;
35743;SDS011;21867;52.012;4.324;2024-01-30T19:35:00;8.57;;;3.33;;
35743;SDS011;21867;52.012;4.324;2024-01-30T19:37:27;7.97;;;3.57;;
35743;SDS011;21867;52.012;4.324;2024-01-30T19:39:55;11.07;;;3.27;;